Soaring Guidance
Issued by NWS Reno, NV

Home | Current Version | Previous Version | Text Only | Print | Product List | Glossary On
Versions: 1 2 3 4 5 6 7 8 9 10 11 12 13 14 15 16
000
UXUS97 KREV 191346
SRGREV

SOARING FORECAST
NATIONAL WEATHER SERVICE - RENO NV
700 AM PDT SAT AUG 19 2017

THIS SOARING FORECAST IS FOR THE EASTERN SIERRA AND WESTERN NEVADA
WITH SPECIFIC INDICES FOR THE GREATER RENO AREA.

THIS FORECAST IS PREPARED DAILY BY 700 AM AND IS NOT UPDATED.

FOR CURRENT FLIGHT CONDITIONS...FORECASTS...AND ADVISORIES...ACCESS
YOUR LOCAL BRIEFING OUTLET OR FLIGHT SERVICE STATION.

*******************************************************************
FORECASTED LOCAL INDICES FOR RENO:        TODAY     YESTERDAY
FORECASTED MAX TEMP AT RENO (DEG F).....     95          97
FORECASTED TRIGGER TEMPERATURE (DEG F)..     84          83
   EXCEEDED YESTERDAY BY 1055 AM PDT
FORECASTED MAXIMUM ALTITUDE (FT MSL)....  18000       17000
FORECASTED SOARING INDEX (FPM)..........   1260        1146
FORECASTED K-INDEX.........VALID 18Z....     22          26
FORECASTED K-INDEX.........VALID 00Z....     27          27
FORECASTED LIFTED INDEX....VALID 18Z....      0           2
FORECASTED LIFTED INDEX....VALID 00Z....     -1          -1

AFTERNOON WINDS ALOFT FORECAST
MSL (FT) WIND/TEMP
9000  2805/+18
10000 2805/+15
12000 2905/+09
14000 2505/+02
16000 2406/-04
18000 24 7/-10
24000 2405/-21
30000 2605/-36
34000 9900/-46
39000 2811/-56

SLIDE MOUNTAIN DATA:
     DATE       TIME     TEMP  DEWPT   RH         WIND (MPH)
                        (F)   (F)           | DIR  SPEED GUST
2017-08-19    05:30      58    36     32    | 009    3    6
2017-08-19    05:20      58    36     32    | 344    3    7
2017-08-19    05:00      58    36     32    | 344    3    7
2017-08-19    04:50      58    37     33    | 342    7   13

RENO TAF FORECAST:
KRNO 191120Z 1912/2012 VRB03KT P6SM FEW120
     FM192300 31010G18KT P6SM VCTS SCT100CB BKN150
     FM200500 VRB03KT P6SM FEW120

CARSON CITY TAF FORECAST:
KCXP 191120Z 1912/2012 VRB03KT P6SM FEW110
     FM192100 26009KT P6SM VCTS SCT080CB BKN140
     FM200400 VRB03KT P6SM FEW110

OUTLOOK FOR THE RENO-CARSON CITY-MINDEN AREA:
.SUNDAY...PARTLY CLOUDY. SLIGHT CHANCE OF SHOWERS AND
THUNDERSTORMS IN THE AFTERNOON. SOME THUNDERSTORMS MAY PRODUCE
HEAVY RAINFALL IN THE AFTERNOON. HIGHS 90 TO 95. LIGHT WINDS.

SUNRISE AND SUNSET
AUGUST 19 2017........SUNRISE   616 AM PDT   SUNSET   749 PM PDT
AUGUST 20 2017........SUNRISE   617 AM PDT   SUNSET   747 PM PDT


USA.gov is the U.S. government's official web portal to all federal, state and local government web resources and services.